createdAt,value
2019-01-13T00:00:11.634Z,71.60
2019-01-13T00:00:49.483Z,71.70
2019-01-13T00:01:29.145Z,71.60
2019-01-13T00:02:07.988Z,71.60
2019-01-13T00:02:46.836Z,71.50
2019-01-13T00:03:26.091Z,71.50
2019-01-13T00:04:05.708Z,71.50
2019-01-13T00:04:45.301Z,71.50
2019-01-13T00:05:24.831Z,71.60
2019-01-13T00:06:03.655Z,71.60
2019-01-13T00:06:43.182Z,71.60
2019-01-13T00:07:21.847Z,71.60
2019-01-13T00:08:00.712Z,71.60
2019-01-13T00:08:39.896Z,71.70
2019-01-13T00:09:18.750Z,71.60
2019-01-13T00:09:57.495Z,71.60
2019-01-13T00:10:36.671Z,71.60
2019-01-13T00:11:16.145Z,71.70
2019-01-13T00:11:55.295Z,71.70
2019-01-13T00:12:35.610Z,71.60
2019-01-13T00:13:15.097Z,71.70
2019-01-13T00:13:54.339Z,71.80
2019-01-13T00:14:33.813Z,71.70
2019-01-13T00:15:13.085Z,71.70
2019-01-13T00:15:51.903Z,71.70
2019-01-13T00:16:30.785Z,71.80
2019-01-13T00:17:09.524Z,71.80
2019-01-13T00:17:48.234Z,71.80
2019-01-13T00:18:27.242Z,71.80
2019-01-13T00:19:06.707Z,71.90
2019-01-13T00:19:46.078Z,71.90
2019-01-13T00:20:25.271Z,71.80
2019-01-13T00:21:04.760Z,71.90
2019-01-13T00:21:43.511Z,71.90
2019-01-13T00:22:22.848Z,71.90
2019-01-13T00:23:02.302Z,71.90
2019-01-13T00:23:41.823Z,71.90
2019-01-13T00:24:20.618Z,72.10
2019-01-13T00:24:59.258Z,71.90
2019-01-13T00:25:38.237Z,71.90
2019-01-13T00:26:17.568Z,71.90
2019-01-13T00:26:56.337Z,71.90
2019-01-13T00:27:35.615Z,71.90
2019-01-13T00:28:14.463Z,71.90
2019-01-13T00:28:53.595Z,72.00
2019-01-13T00:29:32.989Z,71.90
2019-01-13T00:30:19.269Z,72.00
2019-01-13T00:30:56.190Z,71.90
2019-01-13T00:31:35.532Z,71.90
2019-01-13T00:32:15.457Z,72.00
2019-01-13T00:32:54.648Z,72.10
2019-01-13T00:33:34.235Z,72.40
2019-01-13T00:34:12.858Z,71.90
2019-01-13T00:34:51.598Z,72.10
2019-01-13T00:35:31.965Z,72.00
2019-01-13T00:36:11.248Z,72.00
2019-01-13T00:36:50.890Z,72.00
2019-01-13T00:37:29.747Z,72.00
2019-01-13T00:38:08.969Z,72.00
2019-01-13T00:38:48.314Z,72.00
2019-01-13T00:39:27.573Z,72.00
2019-01-13T00:40:07.015Z,72.10
2019-01-13T00:40:46.188Z,72.00
2019-01-13T00:41:24.875Z,72.20
2019-01-13T00:42:03.532Z,72.10
2019-01-13T00:42:42.241Z,72.10
2019-01-13T00:43:21.357Z,72.10
2019-01-13T00:43:59.973Z,72.10
2019-01-13T00:44:39.387Z,72.10
2019-01-13T00:45:18.771Z,72.20
2019-01-13T00:45:58.147Z,72.20
2019-01-13T00:46:37.625Z,72.10
2019-01-13T00:47:16.861Z,72.20
2019-01-13T00:47:56.335Z,72.10
2019-01-13T00:48:35.560Z,71.40
2019-01-13T00:49:14.347Z,72.20
2019-01-13T00:49:53.007Z,72.20
2019-01-13T00:50:31.698Z,72.10
2019-01-13T00:51:10.642Z,72.10
2019-01-13T00:51:49.332Z,72.20
2019-01-13T00:52:28.826Z,72.10
2019-01-13T00:53:08.192Z,72.10
2019-01-13T00:53:47.785Z,72.10
2019-01-13T00:54:27.293Z,72.10
2019-01-13T00:55:06.450Z,72.10
2019-01-13T00:55:45.982Z,72.20
2019-01-13T00:56:25.262Z,72.10
2019-01-13T00:57:03.964Z,72.10
2019-01-13T00:57:42.697Z,72.10
2019-01-13T00:58:21.331Z,72.10
2019-01-13T00:59:00.057Z,72.10
2019-01-13T00:59:38.885Z,72.10
2019-01-13T01:00:26.531Z,72.20
2019-01-13T01:01:02.865Z,72.10
2019-01-13T01:01:42.344Z,72.10
2019-01-13T01:02:21.054Z,72.20
2019-01-13T01:03:00.151Z,72.10
2019-01-13T01:03:39.304Z,72.20
2019-01-13T01:04:18.425Z,72.10
2019-01-13T01:04:57.822Z,72.20
2019-01-13T01:05:37.140Z,72.20
2019-01-13T01:06:16.054Z,72.10
2019-01-13T01:06:54.889Z,72.20
2019-01-13T01:07:33.559Z,72.10
2019-01-13T01:08:12.648Z,72.10
2019-01-13T01:08:51.437Z,72.20
2019-01-13T01:09:30.625Z,72.20
2019-01-13T01:10:11.298Z,72.20
2019-01-13T01:10:50.714Z,72.20
2019-01-13T01:11:29.926Z,72.80
2019-01-13T01:12:08.971Z,72.20
2019-01-13T01:12:47.747Z,72.30
2019-01-13T01:13:27.200Z,72.30
2019-01-13T01:14:06.463Z,72.30
2019-01-13T01:14:45.481Z,72.40
2019-01-13T01:15:24.348Z,72.40
2019-01-13T01:16:02.923Z,72.40
2019-01-13T01:16:41.581Z,72.40
2019-01-13T01:17:20.457Z,72.40
2019-01-13T01:17:59.821Z,72.40
2019-01-13T01:18:39.407Z,72.70
2019-01-13T01:19:18.925Z,72.40
2019-01-13T01:19:58.505Z,72.40
2019-01-13T01:20:38.014Z,72.40
2019-01-13T01:21:17.923Z,72.40
2019-01-13T01:21:57.098Z,72.50
2019-01-13T01:22:35.854Z,72.40
2019-01-13T01:23:15.458Z,72.40
2019-01-13T01:23:54.989Z,72.40
2019-01-13T01:24:33.633Z,71.90
2019-01-13T01:25:12.954Z,72.40
2019-01-13T01:25:51.698Z,72.40
2019-01-13T01:26:31.251Z,72.40
2019-01-13T01:27:10.636Z,72.40
2019-01-13T01:27:50.147Z,72.50
2019-01-13T01:28:29.258Z,72.40
2019-01-13T01:29:08.708Z,72.40
2019-01-13T01:29:47.673Z,72.40
2019-01-13T01:30:33.288Z,72.40
2019-01-13T01:31:07.130Z,72.50
2019-01-13T01:31:46.396Z,72.50
2019-01-13T01:32:25.796Z,72.50
2019-01-13T01:33:05.203Z,72.60
2019-01-13T01:33:43.930Z,72.50
2019-01-13T01:34:22.612Z,72.50
2019-01-13T01:35:01.982Z,72.50
2019-01-13T01:35:40.729Z,72.60
2019-01-13T01:36:20.269Z,72.40
2019-01-13T01:36:59.547Z,72.50
2019-01-13T01:37:38.892Z,72.40
2019-01-13T01:38:17.861Z,72.30
2019-01-13T01:38:56.697Z,72.30
2019-01-13T01:39:35.339Z,72.30
2019-01-13T01:40:22.599Z,72.30
2019-01-13T01:41:02.196Z,72.40
2019-01-13T01:41:41.425Z,72.20
2019-01-13T01:42:20.560Z,72.40
2019-01-13T01:43:00.064Z,72.40
2019-01-13T01:43:39.537Z,72.40
2019-01-13T01:44:18.308Z,72.30
2019-01-13T01:44:56.993Z,72.40
2019-01-13T01:45:35.697Z,72.30
2019-01-13T01:46:15.251Z,72.30
2019-01-13T01:46:54.501Z,72.40
2019-01-13T01:47:34.614Z,72.40
2019-01-13T01:48:13.264Z,72.30
2019-01-13T01:48:52.753Z,72.30
2019-01-13T01:49:31.487Z,72.40
2019-01-13T01:50:11.048Z,72.30
2019-01-13T01:50:50.793Z,72.40
2019-01-13T01:51:30.366Z,72.40
2019-01-13T01:52:09.752Z,72.30
2019-01-13T01:52:48.668Z,72.30
2019-01-13T01:53:27.973Z,72.30
2019-01-13T01:54:06.699Z,72.40
2019-01-13T01:54:45.802Z,72.40
2019-01-13T01:55:25.292Z,72.40
2019-01-13T01:56:04.013Z,72.40
2019-01-13T01:56:43.269Z,72.40
2019-01-13T01:57:22.648Z,72.40
2019-01-13T01:58:01.883Z,72.40
2019-01-13T01:58:41.577Z,72.40
2019-01-13T01:59:20.963Z,72.40
2019-01-13T02:00:00.339Z,72.30
2019-01-13T02:00:40.700Z,72.30
2019-01-13T02:01:19.926Z,72.30
2019-01-13T02:01:58.643Z,72.30
2019-01-13T02:02:37.341Z,72.30
2019-01-13T02:03:35.766Z,72.30
2019-01-13T02:04:15.169Z,72.40
2019-01-13T02:04:53.904Z,72.30
2019-01-13T02:05:33.272Z,72.20
2019-01-13T02:06:12.645Z,72.20
2019-01-13T02:06:51.490Z,72.20
2019-01-13T02:07:30.235Z,72.20
2019-01-13T02:08:09.013Z,72.20
2019-01-13T02:08:47.714Z,72.20
2019-01-13T02:09:26.555Z,72.30
2019-01-13T02:10:07.048Z,72.20
2019-01-13T02:10:46.198Z,72.20
2019-01-13T02:11:25.408Z,72.20
2019-01-13T02:12:04.698Z,72.30
2019-01-13T02:12:44.097Z,72.20
2019-01-13T02:13:22.736Z,72.20
2019-01-13T02:14:01.901Z,72.10
2019-01-13T02:14:40.582Z,72.10
2019-01-13T02:15:24.276Z,72.10
2019-01-13T02:16:03.046Z,72.10
2019-01-13T02:16:42.260Z,72.10
2019-01-13T02:17:20.924Z,72.10
2019-01-13T02:18:00.074Z,72.00
2019-01-13T02:18:38.888Z,72.10
2019-01-13T02:19:18.092Z,72.10
2019-01-13T02:19:57.076Z,72.00
2019-01-13T02:20:36.399Z,72.00
2019-01-13T02:21:15.974Z,72.00
2019-01-13T02:21:54.563Z,71.90
2019-01-13T02:22:33.912Z,71.90
2019-01-13T02:23:12.580Z,71.90
2019-01-13T02:23:51.958Z,71.90
2019-01-13T02:24:31.031Z,71.90
2019-01-13T02:25:11.414Z,71.90
2019-01-13T02:25:50.373Z,71.90
2019-01-13T02:26:29.916Z,71.90
2019-01-13T02:27:09.068Z,71.80
2019-01-13T02:27:47.749Z,71.80
2019-01-13T02:28:27.123Z,71.80
2019-01-13T02:29:06.570Z,71.90
2019-01-13T02:29:45.444Z,71.70
2019-01-13T02:30:25.407Z,71.90
2019-01-13T02:31:04.176Z,71.80
2019-01-13T02:31:42.860Z,71.80
2019-01-13T02:32:22.560Z,71.70
2019-01-13T02:33:01.196Z,71.70
2019-01-13T02:33:39.912Z,71.80
2019-01-13T02:34:18.809Z,71.70
2019-01-13T02:34:58.547Z,71.70
2019-01-13T02:35:37.767Z,71.70
2019-01-13T02:36:16.732Z,71.70
2019-01-13T02:36:56.140Z,71.80
2019-01-13T02:37:35.348Z,71.80
2019-01-13T02:38:15.232Z,71.70
2019-01-13T02:38:53.922Z,71.70
2019-01-13T02:39:32.651Z,71.60
2019-01-13T02:40:12.663Z,71.60
2019-01-13T02:40:51.442Z,71.70
2019-01-13T02:41:30.266Z,71.60
2019-01-13T02:42:09.366Z,71.60
2019-01-13T02:42:48.747Z,71.70
2019-01-13T02:43:28.237Z,71.70
2019-01-13T02:44:07.546Z,71.70
2019-01-13T02:44:46.971Z,71.60
2019-01-13T02:45:30.940Z,71.60
2019-01-13T02:46:09.725Z,71.60
2019-01-13T02:46:48.743Z,71.60
2019-01-13T02:47:27.930Z,71.60
2019-01-13T02:48:07.368Z,71.60
2019-01-13T02:48:46.151Z,71.60
2019-01-13T02:49:24.781Z,71.60
2019-01-13T02:50:03.593Z,71.60
2019-01-13T02:50:42.274Z,71.60
2019-01-13T02:51:21.027Z,71.60
2019-01-13T02:51:59.922Z,71.60
2019-01-13T02:52:39.135Z,71.60
2019-01-13T02:53:18.358Z,71.60
2019-01-13T02:53:57.049Z,71.50
2019-01-13T02:54:36.657Z,71.50
2019-01-13T02:55:16.200Z,71.50
2019-01-13T02:55:55.473Z,71.90
2019-01-13T02:56:34.186Z,71.40
2019-01-13T02:57:12.809Z,71.40
2019-01-13T02:57:51.516Z,71.40
2019-01-13T02:58:30.888Z,71.40
2019-01-13T02:59:10.000Z,71.60
2019-01-13T02:59:49.219Z,71.40
2019-01-13T03:00:29.661Z,71.50
2019-01-13T03:01:08.828Z,71.40
2019-01-13T03:01:48.259Z,71.40
2019-01-13T03:02:27.149Z,71.50
2019-01-13T03:03:06.185Z,72.30
2019-01-13T03:03:45.522Z,71.40
2019-01-13T03:04:25.033Z,71.40
2019-01-13T03:05:03.701Z,71.40
2019-01-13T03:05:42.374Z,71.40
2019-01-13T03:06:21.356Z,71.30
2019-01-13T03:07:00.504Z,71.30
2019-01-13T03:07:39.984Z,71.30
2019-01-13T03:08:19.232Z,71.30
2019-01-13T03:08:58.330Z,71.30
2019-01-13T03:09:37.755Z,71.30
2019-01-13T03:10:19.644Z,71.30
2019-01-13T03:10:59.008Z,71.30
2019-01-13T03:11:37.590Z,71.40
2019-01-13T03:12:16.957Z,71.20
2019-01-13T03:12:55.798Z,71.20
2019-01-13T03:13:34.726Z,71.30
2019-01-13T03:14:13.342Z,71.20
2019-01-13T03:14:53.177Z,71.30
2019-01-13T03:15:32.034Z,71.20
2019-01-13T03:16:10.988Z,71.20
2019-01-13T03:16:50.656Z,71.20
2019-01-13T03:17:30.259Z,71.20
2019-01-13T03:18:09.344Z,71.20
2019-01-13T03:18:48.735Z,71.20
2019-01-13T03:19:28.205Z,71.30
2019-01-13T03:20:08.074Z,71.20
2019-01-13T03:20:47.687Z,71.20
2019-01-13T03:21:27.163Z,71.10
2019-01-13T03:22:05.843Z,71.10
2019-01-13T03:22:44.647Z,71.10
2019-01-13T03:23:23.437Z,71.00
2019-01-13T03:24:02.118Z,71.00
2019-01-13T03:24:41.473Z,71.00
2019-01-13T03:25:22.419Z,71.00
2019-01-13T03:26:01.334Z,70.90
2019-01-13T03:26:40.473Z,70.90
2019-01-13T03:27:19.810Z,70.90
2019-01-13T03:27:59.166Z,70.90
2019-01-13T03:28:38.432Z,70.90
2019-01-13T03:29:18.040Z,70.90
2019-01-13T03:29:57.328Z,70.90
2019-01-13T03:30:36.147Z,70.90
2019-01-13T03:31:14.844Z,70.90
2019-01-13T03:31:53.599Z,70.90
2019-01-13T03:32:34.018Z,70.80
2019-01-13T03:33:13.621Z,70.80
2019-01-13T03:33:52.833Z,70.80
2019-01-13T03:34:31.821Z,70.80
2019-01-13T03:35:12.194Z,70.70
2019-01-13T03:35:51.768Z,70.80
2019-01-13T03:36:30.519Z,70.80
2019-01-13T03:37:09.871Z,70.80
2019-01-13T03:37:49.072Z,70.80
2019-01-13T03:38:28.561Z,70.90
2019-01-13T03:39:09.896Z,70.80
2019-01-13T03:39:48.423Z,71.60
2019-01-13T03:40:28.456Z,70.80
2019-01-13T03:41:07.128Z,70.70
2019-01-13T03:41:46.143Z,70.70
2019-01-13T03:42:24.848Z,70.70
2019-01-13T03:43:03.853Z,70.70
2019-01-13T03:43:42.975Z,70.70
2019-01-13T03:44:22.066Z,70.70
2019-01-13T03:45:01.335Z,70.70
2019-01-13T03:45:40.619Z,70.70
2019-01-13T03:46:19.880Z,70.70
2019-01-13T03:46:58.504Z,70.60
2019-01-13T03:47:37.584Z,70.60
2019-01-13T03:48:16.315Z,70.60
2019-01-13T03:48:55.137Z,70.60
2019-01-13T03:49:34.058Z,70.60
2019-01-13T03:50:15.530Z,70.60
2019-01-13T03:50:57.068Z,70.60
2019-01-13T03:51:35.773Z,70.60
2019-01-13T03:52:15.044Z,70.60
2019-01-13T03:52:54.223Z,70.60
2019-01-13T03:53:33.760Z,70.50
2019-01-13T03:54:12.848Z,70.60
2019-01-13T03:54:52.007Z,70.60
2019-01-13T03:55:31.561Z,70.60
2019-01-13T03:56:10.845Z,70.60
2019-01-13T03:56:50.221Z,70.60
2019-01-13T03:57:28.941Z,70.60
2019-01-13T03:58:07.711Z,70.50
2019-01-13T03:58:46.456Z,70.70
2019-01-13T03:59:25.214Z,70.60
2019-01-13T04:00:04.754Z,70.60
2019-01-13T04:00:43.957Z,70.60
2019-01-13T04:01:23.274Z,70.60
2019-01-13T04:02:02.356Z,70.60
2019-01-13T04:02:41.772Z,70.60
2019-01-13T04:03:21.253Z,70.60
2019-01-13T04:04:00.043Z,70.60
2019-01-13T04:04:38.762Z,70.60
2019-01-13T04:05:17.422Z,70.60
2019-01-13T04:05:56.097Z,70.60
2019-01-13T04:06:35.246Z,70.60
2019-01-13T04:07:13.983Z,70.60
2019-01-13T04:07:52.612Z,70.60
2019-01-13T04:08:31.897Z,70.60
2019-01-13T04:09:13.062Z,70.60
2019-01-13T04:09:51.811Z,70.60
2019-01-13T04:10:31.396Z,70.60
2019-01-13T04:11:10.129Z,70.60
2019-01-13T04:11:48.849Z,70.60
2019-01-13T04:12:27.639Z,70.60
2019-01-13T04:13:06.411Z,70.60
2019-01-13T04:13:45.684Z,70.70
2019-01-13T04:14:24.412Z,70.70
2019-01-13T04:15:03.127Z,70.60
2019-01-13T04:15:45.446Z,70.70
2019-01-13T04:16:24.716Z,70.70
2019-01-13T04:17:04.151Z,70.70
2019-01-13T04:17:43.903Z,70.70
2019-01-13T04:18:23.426Z,70.70
2019-01-13T04:19:02.878Z,70.70
2019-01-13T04:19:42.046Z,70.70
2019-01-13T04:20:20.757Z,70.70
2019-01-13T04:20:59.441Z,70.70
2019-01-13T04:21:38.148Z,70.70
2019-01-13T04:22:16.885Z,70.70
2019-01-13T04:22:55.557Z,70.70
2019-01-13T04:23:34.230Z,70.60
2019-01-13T04:24:13.036Z,70.70
2019-01-13T04:24:52.169Z,70.70
2019-01-13T04:25:30.818Z,70.60
2019-01-13T04:26:09.531Z,70.60
2019-01-13T04:26:48.297Z,70.60
2019-01-13T04:27:27.419Z,70.60
2019-01-13T04:28:06.616Z,70.60
2019-01-13T04:28:45.691Z,70.70
2019-01-13T04:29:24.842Z,70.70
2019-01-13T04:30:03.401Z,70.60
2019-01-13T04:30:42.238Z,70.70
2019-01-13T04:31:26.755Z,70.70
2019-01-13T04:32:01.809Z,70.60
2019-01-13T04:32:40.639Z,70.70
2019-01-13T04:33:19.332Z,71.40
2019-01-13T04:33:58.087Z,70.60
2019-01-13T04:34:37.179Z,70.70
2019-01-13T04:35:16.584Z,70.70
2019-01-13T04:35:55.968Z,70.60
2019-01-13T04:36:35.592Z,70.70
2019-01-13T04:37:14.861Z,70.60
2019-01-13T04:37:54.278Z,70.60
2019-01-13T04:38:32.913Z,70.70
2019-01-13T04:39:11.738Z,70.70
2019-01-13T04:39:50.489Z,70.70
2019-01-13T04:40:29.964Z,70.70
2019-01-13T04:41:08.613Z,70.70
2019-01-13T04:41:47.705Z,70.70
2019-01-13T04:42:27.109Z,70.70
2019-01-13T04:43:06.544Z,70.60
2019-01-13T04:43:45.580Z,70.60
2019-01-13T04:44:24.914Z,70.70
2019-01-13T04:45:04.257Z,70.70
2019-01-13T04:45:43.802Z,70.70
2019-01-13T04:46:23.139Z,70.70
2019-01-13T04:47:01.814Z,70.70
2019-01-13T04:47:40.492Z,70.70
2019-01-13T04:48:19.295Z,70.70
2019-01-13T04:48:58.588Z,70.70
2019-01-13T04:49:37.995Z,70.70
2019-01-13T04:50:16.573Z,70.60
2019-01-13T04:50:55.919Z,70.60
2019-01-13T04:51:34.614Z,70.70
2019-01-13T04:52:13.331Z,70.60
2019-01-13T04:52:52.111Z,70.30
2019-01-13T04:53:30.840Z,70.50
2019-01-13T04:54:09.605Z,70.60
2019-01-13T04:54:48.358Z,70.50
2019-01-13T04:55:27.087Z,70.50
2019-01-13T04:56:06.646Z,70.50
2019-01-13T04:56:45.220Z,70.50
2019-01-13T04:57:24.697Z,70.30
2019-01-13T04:58:04.122Z,70.10
2019-01-13T04:58:43.695Z,70.10
2019-01-13T04:59:22.870Z,70.00
2019-01-13T05:00:01.606Z,70.10
2019-01-13T05:00:40.368Z,70.00
2019-01-13T05:01:19.341Z,70.30
2019-01-13T05:01:57.968Z,70.00
2019-01-13T05:02:36.663Z,70.10
2019-01-13T05:03:15.879Z,70.10
2019-01-13T05:03:55.453Z,70.10
2019-01-13T05:04:34.131Z,69.90
2019-01-13T05:05:13.117Z,69.70
2019-01-13T05:05:51.800Z,69.90
2019-01-13T05:06:30.817Z,70.60
2019-01-13T05:07:09.898Z,69.80
2019-01-13T05:07:49.114Z,69.80
2019-01-13T05:08:28.396Z,69.70
2019-01-13T05:09:10.930Z,69.50
2019-01-13T05:09:50.205Z,69.70
2019-01-13T05:10:29.731Z,69.60
2019-01-13T05:11:09.144Z,69.60
2019-01-13T05:11:48.556Z,69.60
2019-01-13T05:12:27.903Z,69.60
2019-01-13T05:13:07.127Z,69.40
2019-01-13T05:13:45.818Z,69.70
2019-01-13T05:14:25.792Z,69.50
2019-01-13T05:15:04.869Z,69.60
2019-01-13T05:15:44.200Z,69.50
2019-01-13T05:16:22.882Z,69.50
2019-01-13T05:17:01.695Z,69.50
2019-01-13T05:17:40.813Z,69.40
2019-01-13T05:18:19.990Z,69.40
2019-01-13T05:18:59.217Z,69.40
2019-01-13T05:19:38.906Z,69.40
2019-01-13T05:20:19.203Z,69.40
2019-01-13T05:20:58.286Z,69.40
2019-01-13T05:21:37.001Z,69.30
2019-01-13T05:22:15.696Z,69.30
2019-01-13T05:22:54.406Z,70.00
2019-01-13T05:23:33.867Z,69.30
2019-01-13T05:24:12.600Z,69.20
2019-01-13T05:24:51.358Z,69.30
2019-01-13T05:25:30.673Z,69.30
2019-01-13T05:26:10.167Z,69.20
2019-01-13T05:26:49.356Z,69.30
2019-01-13T05:27:28.725Z,69.30
2019-01-13T05:28:08.197Z,69.20
2019-01-13T05:28:46.848Z,69.10
2019-01-13T05:29:25.635Z,69.00
2019-01-13T05:30:05.139Z,69.10
2019-01-13T05:30:43.860Z,69.00
2019-01-13T05:31:22.761Z,69.10
2019-01-13T05:32:01.944Z,69.10
2019-01-13T05:32:41.651Z,69.00
2019-01-13T05:33:20.911Z,69.00
2019-01-13T05:34:00.209Z,69.00
2019-01-13T05:34:39.848Z,69.00
2019-01-13T05:35:18.673Z,69.00
2019-01-13T05:35:57.394Z,68.90
2019-01-13T05:36:36.050Z,69.00
2019-01-13T05:37:15.379Z,68.90
2019-01-13T05:37:54.038Z,68.90
2019-01-13T05:38:33.134Z,68.90
2019-01-13T05:39:12.802Z,69.20
2019-01-13T05:39:52.288Z,69.00
2019-01-13T05:40:31.614Z,68.90
2019-01-13T05:41:11.054Z,68.90
2019-01-13T05:41:50.117Z,68.90
2019-01-13T05:42:29.599Z,68.90
2019-01-13T05:43:08.939Z,68.90
2019-01-13T05:43:47.705Z,69.10
2019-01-13T05:44:26.386Z,68.70
2019-01-13T05:45:05.112Z,68.80
2019-01-13T05:45:43.780Z,68.80
2019-01-13T05:46:22.442Z,68.80
2019-01-13T05:47:02.050Z,68.70
2019-01-13T05:47:41.364Z,68.80
2019-01-13T05:48:20.586Z,68.70
2019-01-13T05:49:00.195Z,68.80
2019-01-13T05:49:39.424Z,68.70
2019-01-13T05:50:20.324Z,68.70
2019-01-13T05:50:59.698Z,68.50
2019-01-13T05:51:39.260Z,68.50
2019-01-13T05:52:18.261Z,68.60
2019-01-13T05:52:57.075Z,68.40
2019-01-13T05:53:35.809Z,68.40
2019-01-13T05:54:15.079Z,68.50
2019-01-13T05:54:53.694Z,68.30
2019-01-13T05:55:33.216Z,68.20
2019-01-13T05:56:12.028Z,68.30
2019-01-13T05:56:51.352Z,68.20
2019-01-13T05:57:30.743Z,68.10
2019-01-13T05:58:09.476Z,68.10
2019-01-13T05:58:48.338Z,68.00
2019-01-13T05:59:27.109Z,68.10
2019-01-13T06:00:05.811Z,68.00
2019-01-13T06:00:45.518Z,68.20
2019-01-13T06:01:24.226Z,67.90
2019-01-13T06:02:02.932Z,68.00
2019-01-13T06:02:41.640Z,68.10
2019-01-13T06:03:20.429Z,67.80
2019-01-13T06:03:59.155Z,67.80
2019-01-13T06:04:37.881Z,67.70
2019-01-13T06:05:17.434Z,67.80
2019-01-13T06:05:56.271Z,68.00
2019-01-13T06:06:34.936Z,67.70
2019-01-13T06:07:14.215Z,67.80
2019-01-13T06:07:53.791Z,67.70
2019-01-13T06:08:33.027Z,67.80
2019-01-13T06:09:12.898Z,67.60
2019-01-13T06:09:52.149Z,68.00
2019-01-13T06:10:31.581Z,67.80
2019-01-13T06:11:10.997Z,67.70
2019-01-13T06:11:50.631Z,67.50
2019-01-13T06:12:29.388Z,67.50
2019-01-13T06:13:08.143Z,67.40
2019-01-13T06:13:47.446Z,67.50
2019-01-13T06:14:26.389Z,67.60
2019-01-13T06:15:05.540Z,67.40
2019-01-13T06:15:45.797Z,67.50
2019-01-13T06:16:25.221Z,67.80
2019-01-13T06:17:03.934Z,67.40
2019-01-13T06:17:43.193Z,67.20
2019-01-13T06:18:21.899Z,67.20
2019-01-13T06:19:00.440Z,67.20
2019-01-13T06:19:39.161Z,67.40
2019-01-13T06:20:19.949Z,67.10
2019-01-13T06:20:59.286Z,67.10
2019-01-13T06:21:38.012Z,67.00
2019-01-13T06:22:16.864Z,67.10
2019-01-13T06:22:55.979Z,67.00
2019-01-13T06:23:35.475Z,67.10
2019-01-13T06:24:15.044Z,67.20
2019-01-13T06:24:54.584Z,67.10
2019-01-13T06:25:33.699Z,67.10
2019-01-13T06:26:12.759Z,67.30
2019-01-13T06:26:51.537Z,67.00
2019-01-13T06:27:30.189Z,67.00
2019-01-13T06:28:10.214Z,67.00
2019-01-13T06:28:49.434Z,67.40
2019-01-13T06:29:28.145Z,67.00
2019-01-13T06:30:08.889Z,66.90
2019-01-13T06:30:47.786Z,66.90
2019-01-13T06:31:27.211Z,67.30
2019-01-13T06:32:06.494Z,67.00
2019-01-13T06:32:45.783Z,66.90
2019-01-13T06:33:25.265Z,66.90
2019-01-13T06:34:04.433Z,66.80
2019-01-13T06:34:43.803Z,66.80
2019-01-13T06:35:22.526Z,66.80
2019-01-13T06:36:01.151Z,66.70
2019-01-13T06:36:40.387Z,66.70
2019-01-13T06:37:19.106Z,66.70
2019-01-13T06:37:58.105Z,66.70
2019-01-13T06:38:37.218Z,66.80
2019-01-13T06:39:16.369Z,66.70
2019-01-13T06:39:55.116Z,66.70
2019-01-13T06:40:34.352Z,66.90
2019-01-13T06:41:13.637Z,66.80
2019-01-13T06:41:53.026Z,66.70
2019-01-13T06:42:31.980Z,66.60
2019-01-13T06:43:10.682Z,66.90
2019-01-13T06:43:49.415Z,66.60
2019-01-13T06:44:28.578Z,66.60
2019-01-13T06:45:07.941Z,66.70
2019-01-13T06:45:47.250Z,66.70
2019-01-13T06:46:26.470Z,66.50
2019-01-13T06:47:05.086Z,66.60
2019-01-13T06:48:02.173Z,66.70
2019-01-13T06:48:41.462Z,66.20
2019-01-13T06:49:20.876Z,66.60
2019-01-13T06:49:59.816Z,66.50
2019-01-13T06:50:38.801Z,66.60
2019-01-13T06:51:18.105Z,66.60
2019-01-13T06:51:57.611Z,66.60
2019-01-13T06:52:36.906Z,66.50
2019-01-13T06:53:16.013Z,66.50
2019-01-13T06:53:55.642Z,66.60
2019-01-13T06:54:34.532Z,66.60
2019-01-13T06:55:13.282Z,66.50
2019-01-13T06:55:52.074Z,66.40
2019-01-13T06:56:31.082Z,66.70
2019-01-13T06:57:09.757Z,66.70
2019-01-13T06:57:48.842Z,66.50
2019-01-13T06:58:28.267Z,66.50
2019-01-13T06:59:07.321Z,66.50
2019-01-13T06:59:47.042Z,66.50
2019-01-13T07:00:27.846Z,66.50
2019-01-13T07:01:06.541Z,66.50
2019-01-13T07:01:45.827Z,66.50
2019-01-13T07:02:25.349Z,66.10
2019-01-13T07:03:04.265Z,66.60
2019-01-13T07:03:43.075Z,66.50
2019-01-13T07:04:22.344Z,66.50
2019-01-13T07:05:01.077Z,66.60
2019-01-13T07:05:39.935Z,66.50
2019-01-13T07:06:18.623Z,66.50
2019-01-13T07:06:57.438Z,66.40
2019-01-13T07:07:37.493Z,66.50
2019-01-13T07:08:16.678Z,66.50
2019-01-13T07:09:13.695Z,66.40
2019-01-13T07:09:52.342Z,66.00
2019-01-13T07:10:31.152Z,66.40
2019-01-13T07:11:09.853Z,66.50
2019-01-13T07:11:49.471Z,66.40
2019-01-13T07:12:28.807Z,66.40
2019-01-13T07:13:07.965Z,66.40
2019-01-13T07:13:47.533Z,66.40
2019-01-13T07:14:26.811Z,66.50
2019-01-13T07:15:06.328Z,66.40
2019-01-13T07:15:45.673Z,66.50
2019-01-13T07:16:24.447Z,66.40
2019-01-13T07:17:03.272Z,66.50
2019-01-13T07:17:42.040Z,66.40
2019-01-13T07:18:20.877Z,66.50
2019-01-13T07:18:59.925Z,66.40
2019-01-13T07:19:39.561Z,66.40
2019-01-13T07:20:19.834Z,66.30
2019-01-13T07:20:59.017Z,66.40
2019-01-13T07:21:37.746Z,66.40
2019-01-13T07:22:17.174Z,66.40
2019-01-13T07:22:56.470Z,66.50
2019-01-13T07:23:35.185Z,66.40
2019-01-13T07:24:15.198Z,66.50
2019-01-13T07:24:53.865Z,66.40
2019-01-13T07:25:32.614Z,66.30
2019-01-13T07:26:11.596Z,66.40
2019-01-13T07:26:50.335Z,66.40
2019-01-13T07:27:29.492Z,66.30
2019-01-13T07:28:08.907Z,66.30
2019-01-13T07:28:48.068Z,66.30
2019-01-13T07:29:27.538Z,66.30
2019-01-13T07:30:06.862Z,66.30
2019-01-13T07:30:46.209Z,66.30
2019-01-13T07:31:25.742Z,66.40
2019-01-13T07:32:10.587Z,66.30
2019-01-13T07:32:44.502Z,66.30
2019-01-13T07:33:23.209Z,66.20
2019-01-13T07:34:01.948Z,66.20
2019-01-13T07:34:41.328Z,66.30
2019-01-13T07:35:20.425Z,66.30
2019-01-13T07:35:59.714Z,66.20
2019-01-13T07:36:38.759Z,66.20
2019-01-13T07:37:18.096Z,66.30
2019-01-13T07:37:57.404Z,66.40
2019-01-13T07:38:36.161Z,66.30
2019-01-13T07:39:15.399Z,66.30
2019-01-13T07:39:54.888Z,66.30
2019-01-13T07:40:34.372Z,66.40
2019-01-13T07:41:13.066Z,66.30
2019-01-13T07:41:51.811Z,66.30
2019-01-13T07:42:30.482Z,66.30
2019-01-13T07:43:09.743Z,66.30
2019-01-13T07:43:48.876Z,66.30
2019-01-13T07:44:27.536Z,66.30
2019-01-13T07:45:06.916Z,66.30
2019-01-13T07:45:45.646Z,66.30
2019-01-13T07:46:24.318Z,66.30
2019-01-13T07:47:03.382Z,66.30
2019-01-13T07:47:42.675Z,66.30
2019-01-13T07:48:22.216Z,66.20
2019-01-13T07:49:01.558Z,66.10
2019-01-13T07:49:40.270Z,66.10
2019-01-13T07:50:19.889Z,66.00
2019-01-13T07:50:59.003Z,66.10
2019-01-13T07:51:37.653Z,66.20
2019-01-13T07:52:16.488Z,66.10
2019-01-13T07:52:55.198Z,66.20
2019-01-13T07:53:34.169Z,66.10
2019-01-13T07:54:13.288Z,65.90
2019-01-13T07:54:52.205Z,66.10
2019-01-13T07:55:31.657Z,66.00
2019-01-13T07:56:11.012Z,66.00
2019-01-13T07:56:50.258Z,66.10
2019-01-13T07:57:28.910Z,66.10
2019-01-13T07:58:08.400Z,66.10
2019-01-13T07:58:47.628Z,66.00
2019-01-13T07:59:26.868Z,66.00
2019-01-13T08:00:06.313Z,66.10
2019-01-13T08:00:45.940Z,66.20
2019-01-13T08:01:24.772Z,66.10
2019-01-13T08:02:03.801Z,66.10
2019-01-13T08:02:43.089Z,66.10
2019-01-13T08:03:21.835Z,66.00
2019-01-13T08:04:01.110Z,66.10
2019-01-13T08:04:40.307Z,66.10
2019-01-13T08:05:19.041Z,66.20
2019-01-13T08:05:57.608Z,66.20
2019-01-13T08:06:36.335Z,66.20
2019-01-13T08:07:15.115Z,66.20
2019-01-13T08:07:54.264Z,66.20
2019-01-13T08:08:33.499Z,66.20
2019-01-13T08:09:14.110Z,66.20
2019-01-13T08:09:53.577Z,66.10
2019-01-13T08:10:32.644Z,66.10
2019-01-13T08:11:11.763Z,66.10
2019-01-13T08:11:51.198Z,66.00
2019-01-13T08:12:30.609Z,66.10
2019-01-13T08:13:09.842Z,66.10
2019-01-13T08:13:48.611Z,66.10
2019-01-13T08:14:27.344Z,66.10
2019-01-13T08:15:06.100Z,66.20
2019-01-13T08:15:44.913Z,66.20
2019-01-13T08:16:24.525Z,66.10
2019-01-13T08:17:04.297Z,66.10
2019-01-13T08:17:43.485Z,66.20
2019-01-13T08:18:22.723Z,66.20
2019-01-13T08:19:02.269Z,66.20
2019-01-13T08:19:41.873Z,66.10
2019-01-13T08:20:26.278Z,66.20
2019-01-13T08:21:05.454Z,66.20
2019-01-13T08:21:44.805Z,66.10
2019-01-13T08:22:23.980Z,66.10
2019-01-13T08:23:03.191Z,66.10
2019-01-13T08:23:41.926Z,66.10
2019-01-13T08:24:20.725Z,66.20
2019-01-13T08:24:59.919Z,66.10
2019-01-13T08:25:38.631Z,66.20